sensor_id;sensor_type;location;lat;lon;timestamp;pressure;altitude;pressure_sealevel;temperature;humidity
11413;BME280;5762;43.256;26.960;2022-08-30T00:01:04;99458.19;;;22.50;100.00
11413;BME280;5762;43.256;26.960;2022-08-30T00:03:36;99460.52;;;22.45;100.00
11413;BME280;5762;43.256;26.960;2022-08-30T00:06:04;99460.87;;;22.39;100.00
11413;BME280;5762;43.256;26.960;2022-08-30T00:08:35;99458.49;;;22.38;100.00
11413;BME280;5762;43.256;26.960;2022-08-30T00:11:06;99461.76;;;22.27;100.00
11413;BME280;5762;43.256;26.960;2022-08-30T00:13:35;99458.36;;;22.17;100.00
11413;BME280;5762;43.256;26.960;2022-08-30T00:16:04;99461.27;;;22.11;100.00
11413;BME280;5762;43.256;26.960;2022-08-30T00:18:34;99463.66;;;21.95;100.00
11413;BME280;5762;43.256;26.960;2022-08-30T00:21:04;99463.59;;;21.88;100.00
11413;BME280;5762;43.256;26.960;2022-08-30T00:23:33;99456.05;;;21.78;100.00
11413;BME280;5762;43.256;26.960;2022-08-30T00:26:03;99457.77;;;21.73;100.00
11413;BME280;5762;43.256;26.960;2022-08-30T00:28:32;99461.73;;;21.76;100.00
11413;BME280;5762;43.256;26.960;2022-08-30T00:31:02;99452.67;;;21.75;100.00
11413;BME280;5762;43.256;26.960;2022-08-30T00:33:31;99456.36;;;21.69;100.00
11413;BME280;5762;43.256;26.960;2022-08-30T00:36:00;99455.70;;;21.63;100.00
11413;BME280;5762;43.256;26.960;2022-08-30T00:38:29;99453.36;;;21.65;100.00
11413;BME280;5762;43.256;26.960;2022-08-30T00:40:58;99452.19;;;21.66;100.00
11413;BME280;5762;43.256;26.960;2022-08-30T00:43:29;99453.56;;;21.66;100.00
11413;BME280;5762;43.256;26.960;2022-08-30T00:45:57;99449.98;;;21.62;100.00
11413;BME280;5762;43.256;26.960;2022-08-30T00:48:26;99456.76;;;21.51;100.00
11413;BME280;5762;43.256;26.960;2022-08-30T00:50:57;99462.39;;;21.42;100.00
11413;BME280;5762;43.256;26.960;2022-08-30T00:53:26;99470.14;;;21.32;100.00
11413;BME280;5762;43.256;26.960;2022-08-30T00:55:55;99467.19;;;21.31;100.00
11413;BME280;5762;43.256;26.960;2022-08-30T00:58:28;99470.73;;;21.32;100.00
11413;BME280;5762;43.256;26.960;2022-08-30T01:00:56;99469.35;;;21.32;100.00
11413;BME280;5762;43.256;26.960;2022-08-30T01:05:54;99469.85;;;21.24;100.00
11413;BME280;5762;43.256;26.960;2022-08-30T01:10:55;99470.81;;;21.22;100.00
11413;BME280;5762;43.256;26.960;2022-08-30T01:13:24;99473.98;;;21.24;100.00
11413;BME280;5762;43.256;26.960;2022-08-30T01:15:54;99473.39;;;21.25;100.00
11413;BME280;5762;43.256;26.960;2022-08-30T01:18:24;99477.11;;;21.23;100.00
11413;BME280;5762;43.256;26.960;2022-08-30T01:23:23;99474.45;;;21.17;100.00
11413;BME280;5762;43.256;26.960;2022-08-30T01:30:52;99488.31;;;21.07;100.00
11413;BME280;5762;43.256;26.960;2022-08-30T01:33:21;99486.30;;;21.04;100.00
11413;BME280;5762;43.256;26.960;2022-08-30T01:38:21;99482.25;;;20.94;100.00
11413;BME280;5762;43.256;26.960;2022-08-30T01:40:55;99476.91;;;20.92;100.00
11413;BME280;5762;43.256;26.960;2022-08-30T01:43:20;99477.22;;;20.70;100.00
11413;BME280;5762;43.256;26.960;2022-08-30T01:45:49;99475.53;;;20.49;100.00
11413;BME280;5762;43.256;26.960;2022-08-30T01:50:48;99474.36;;;20.36;100.00
11413;BME280;5762;43.256;26.960;2022-08-30T01:53:17;99480.64;;;20.24;100.00
11413;BME280;5762;43.256;26.960;2022-08-30T01:55:46;99476.03;;;20.18;100.00
11413;BME280;5762;43.256;26.960;2022-08-30T01:58:15;99474.81;;;20.16;100.00
11413;BME280;5762;43.256;26.960;2022-08-30T02:00:45;99472.19;;;20.10;100.00
11413;BME280;5762;43.256;26.960;2022-08-30T02:03:14;99471.21;;;19.98;100.00
11413;BME280;5762;43.256;26.960;2022-08-30T02:05:43;99475.21;;;19.91;100.00
11413;BME280;5762;43.256;26.960;2022-08-30T02:08:12;99475.42;;;19.92;100.00
11413;BME280;5762;43.256;26.960;2022-08-30T02:10:41;99480.42;;;19.87;100.00
11413;BME280;5762;43.256;26.960;2022-08-30T02:13:10;99478.47;;;19.87;100.00
11413;BME280;5762;43.256;26.960;2022-08-30T02:15:39;99491.91;;;19.69;100.00
11413;BME280;5762;43.256;26.960;2022-08-30T02:18:09;99481.16;;;19.61;100.00
11413;BME280;5762;43.256;26.960;2022-08-30T02:20:38;99493.36;;;19.63;100.00
11413;BME280;5762;43.256;26.960;2022-08-30T02:23:08;99492.57;;;19.63;100.00
11413;BME280;5762;43.256;26.960;2022-08-30T02:25:37;99504.34;;;19.63;100.00
11413;BME280;5762;43.256;26.960;2022-08-30T02:28:06;99499.65;;;19.64;100.00
11413;BME280;5762;43.256;26.960;2022-08-30T02:30:36;99503.77;;;19.64;100.00
11413;BME280;5762;43.256;26.960;2022-08-30T02:33:05;99508.83;;;19.62;100.00
11413;BME280;5762;43.256;26.960;2022-08-30T02:35:37;99507.39;;;19.58;100.00
11413;BME280;5762;43.256;26.960;2022-08-30T02:38:06;99507.23;;;19.70;100.00
11413;BME280;5762;43.256;26.960;2022-08-30T02:40:35;99510.19;;;19.71;100.00
11413;BME280;5762;43.256;26.960;2022-08-30T02:45:34;99519.44;;;19.73;100.00
11413;BME280;5762;43.256;26.960;2022-08-30T02:48:03;99284.81;;;18.27;100.00
11413;BME280;5762;43.256;26.960;2022-08-30T02:50:32;99514.38;;;19.75;100.00
11413;BME280;5762;43.256;26.960;2022-08-30T02:53:01;99521.86;;;19.78;100.00
11413;BME280;5762;43.256;26.960;2022-08-30T02:58:00;99516.79;;;19.80;100.00
11413;BME280;5762;43.256;26.960;2022-08-30T03:00:29;99514.26;;;19.81;100.00
11413;BME280;5762;43.256;26.960;2022-08-30T03:02:58;99511.09;;;19.79;100.00
11413;BME280;5762;43.256;26.960;2022-08-30T03:05:27;99515.42;;;19.80;100.00
11413;BME280;5762;43.256;26.960;2022-08-30T03:07:56;99514.26;;;19.81;100.00
11413;BME280;5762;43.256;26.960;2022-08-30T03:10:26;99514.05;;;19.80;100.00
11413;BME280;5762;43.256;26.960;2022-08-30T03:12:55;99514.48;;;19.82;100.00
11413;BME280;5762;43.256;26.960;2022-08-30T03:15:28;99515.98;;;19.89;100.00
11413;BME280;5762;43.256;26.960;2022-08-30T03:17:57;99513.83;;;19.79;100.00
11413;BME280;5762;43.256;26.960;2022-08-30T03:20:27;99513.52;;;19.71;100.00
11413;BME280;5762;43.256;26.960;2022-08-30T03:22:56;99523.13;;;19.61;100.00
11413;BME280;5762;43.256;26.960;2022-08-30T03:25:25;99518.44;;;19.52;100.00
11413;BME280;5762;43.256;26.960;2022-08-30T03:27:55;99529.34;;;19.39;100.00
11413;BME280;5762;43.256;26.960;2022-08-30T03:30:24;99528.84;;;19.24;100.00
11413;BME280;5762;43.256;26.960;2022-08-30T03:32:54;99532.79;;;19.07;100.00
11413;BME280;5762;43.256;26.960;2022-08-30T03:35:22;99541.83;;;18.98;100.00
11413;BME280;5762;43.256;26.960;2022-08-30T03:37:55;99543.25;;;18.92;100.00
11413;BME280;5762;43.256;26.960;2022-08-30T03:40:24;99551.48;;;18.92;100.00
11413;BME280;5762;43.256;26.960;2022-08-30T03:42:53;99549.75;;;18.93;100.00
11413;BME280;5762;43.256;26.960;2022-08-30T03:45:22;99556.66;;;18.87;100.00
11413;BME280;5762;43.256;26.960;2022-08-30T03:47:51;99559.41;;;18.87;100.00
11413;BME280;5762;43.256;26.960;2022-08-30T03:50:21;99570.45;;;18.91;100.00
11413;BME280;5762;43.256;26.960;2022-08-30T03:52:50;99567.16;;;19.01;100.00
11413;BME280;5762;43.256;26.960;2022-08-30T03:55:19;99568.62;;;19.04;100.00
11413;BME280;5762;43.256;26.960;2022-08-30T03:57:48;99569.32;;;19.11;100.00
11413;BME280;5762;43.256;26.960;2022-08-30T04:00:18;99568.19;;;19.22;100.00
11413;BME280;5762;43.256;26.960;2022-08-30T04:02:47;99568.78;;;19.31;100.00
11413;BME280;5762;43.256;26.960;2022-08-30T04:05:16;99568.34;;;19.29;100.00
11413;BME280;5762;43.256;26.960;2022-08-30T04:07:45;99573.69;;;19.31;100.00
11413;BME280;5762;43.256;26.960;2022-08-30T04:10:15;99575.94;;;19.35;100.00
11413;BME280;5762;43.256;26.960;2022-08-30T04:15:14;99582.41;;;19.47;100.00
11413;BME280;5762;43.256;26.960;2022-08-30T04:17:43;99586.27;;;19.52;100.00
11413;BME280;5762;43.256;26.960;2022-08-30T04:20:12;99590.25;;;19.64;100.00
11413;BME280;5762;43.256;26.960;2022-08-30T04:22:41;99592.03;;;19.75;100.00
11413;BME280;5762;43.256;26.960;2022-08-30T04:25:11;99592.60;;;19.85;100.00
11413;BME280;5762;43.256;26.960;2022-08-30T04:27:40;99589.55;;;19.99;100.00
11413;BME280;5762;43.256;26.960;2022-08-30T04:30:10;99588.20;;;20.13;100.00
11413;BME280;5762;43.256;26.960;2022-08-30T04:32:39;99592.95;;;20.25;100.00
11413;BME280;5762;43.256;26.960;2022-08-30T04:35:08;99591.06;;;20.39;100.00
11413;BME280;5762;43.256;26.960;2022-08-30T04:37:38;99593.59;;;20.51;100.00
11413;BME280;5762;43.256;26.960;2022-08-30T04:40:07;99598.09;;;20.50;100.00
11413;BME280;5762;43.256;26.960;2022-08-30T04:42:37;99594.97;;;20.51;100.00
11413;BME280;5762;43.256;26.960;2022-08-30T04:45:08;99602.73;;;20.46;100.00
11413;BME280;5762;43.256;26.960;2022-08-30T04:47:35;99596.58;;;20.65;100.00
11413;BME280;5762;43.256;26.960;2022-08-30T04:50:06;99597.90;;;20.88;100.00
11413;BME280;5762;43.256;26.960;2022-08-30T04:52:35;99586.38;;;21.05;100.00
11413;BME280;5762;43.256;26.960;2022-08-30T04:55:04;99588.72;;;21.20;100.00
11413;BME280;5762;43.256;26.960;2022-08-30T04:57:34;99586.84;;;21.24;100.00
11413;BME280;5762;43.256;26.960;2022-08-30T05:00:04;99582.06;;;21.34;100.00
11413;BME280;5762;43.256;26.960;2022-08-30T05:02:33;99587.78;;;21.35;100.00
11413;BME280;5762;43.256;26.960;2022-08-30T05:05:02;99590.30;;;21.48;100.00
11413;BME280;5762;43.256;26.960;2022-08-30T05:07:33;99590.69;;;21.50;100.00
11413;BME280;5762;43.256;26.960;2022-08-30T05:10:02;99590.70;;;21.66;100.00
11413;BME280;5762;43.256;26.960;2022-08-30T05:12:31;99596.25;;;21.70;100.00
11413;BME280;5762;43.256;26.960;2022-08-30T05:17:27;99597.00;;;21.67;100.00
11413;BME280;5762;43.256;26.960;2022-08-30T05:19:56;99596.97;;;21.80;100.00
11413;BME280;5762;43.256;26.960;2022-08-30T05:22:25;99605.08;;;21.86;100.00
11413;BME280;5762;43.256;26.960;2022-08-30T05:24:54;99605.03;;;21.99;100.00
11413;BME280;5762;43.256;26.960;2022-08-30T05:29:54;99600.78;;;22.26;100.00
11413;BME280;5762;43.256;26.960;2022-08-30T05:32:22;99603.05;;;22.37;100.00
11413;BME280;5762;43.256;26.960;2022-08-30T05:34:52;99601.02;;;22.54;100.00
11413;BME280;5762;43.256;26.960;2022-08-30T05:37:21;99605.19;;;22.58;100.00
11413;BME280;5762;43.256;26.960;2022-08-30T05:39:50;99604.66;;;22.65;100.00
11413;BME280;5762;43.256;26.960;2022-08-30T05:42:19;99601.34;;;22.69;100.00
11413;BME280;5762;43.256;26.960;2022-08-30T05:47:19;99606.52;;;23.02;100.00
11413;BME280;5762;43.256;26.960;2022-08-30T05:49:48;99609.73;;;23.11;100.00
11413;BME280;5762;43.256;26.960;2022-08-30T05:52:17;99617.11;;;23.27;100.00
11413;BME280;5762;43.256;26.960;2022-08-30T05:57:16;99611.48;;;23.44;100.00
11413;BME280;5762;43.256;26.960;2022-08-30T05:59:46;99617.50;;;23.64;100.00
11413;BME280;5762;43.256;26.960;2022-08-30T06:02:15;99618.33;;;23.71;100.00
11413;BME280;5762;43.256;26.960;2022-08-30T06:04:45;99618.75;;;23.77;100.00
11413;BME280;5762;43.256;26.960;2022-08-30T06:09:43;99616.85;;;24.10;100.00
11413;BME280;5762;43.256;26.960;2022-08-30T06:12:12;99615.50;;;24.20;100.00
11413;BME280;5762;43.256;26.960;2022-08-30T06:14:41;99616.91;;;24.31;100.00
11413;BME280;5762;43.256;26.960;2022-08-30T06:17:10;99609.42;;;24.56;100.00
11413;BME280;5762;43.256;26.960;2022-08-30T06:19:39;99610.59;;;24.69;100.00
11413;BME280;5762;43.256;26.960;2022-08-30T06:22:08;99612.36;;;24.86;100.00
11413;BME280;5762;43.256;26.960;2022-08-30T06:24:38;99605.23;;;25.02;100.00
11413;BME280;5762;43.256;26.960;2022-08-30T06:27:08;99603.22;;;25.24;100.00
11413;BME280;5762;43.256;26.960;2022-08-30T06:29:40;99606.91;;;25.40;100.00
11413;BME280;5762;43.256;26.960;2022-08-30T06:34:38;99610.58;;;25.66;100.00
11413;BME280;5762;43.256;26.960;2022-08-30T06:37:07;99610.70;;;25.85;100.00
11413;BME280;5762;43.256;26.960;2022-08-30T06:39:36;99611.82;;;25.98;100.00
11413;BME280;5762;43.256;26.960;2022-08-30T06:42:05;99603.71;;;26.25;100.00
11413;BME280;5762;43.256;26.960;2022-08-30T06:44:34;99611.75;;;26.38;100.00
11413;BME280;5762;43.256;26.960;2022-08-30T06:47:03;99604.79;;;26.42;100.00
11413;BME280;5762;43.256;26.960;2022-08-30T06:49:32;99607.45;;;26.56;100.00
11413;BME280;5762;43.256;26.960;2022-08-30T06:54:32;99604.73;;;26.94;100.00
11413;BME280;5762;43.256;26.960;2022-08-30T06:57:01;99600.66;;;27.06;100.00
11413;BME280;5762;43.256;26.960;2022-08-30T06:59:30;99601.98;;;27.13;100.00
11413;BME280;5762;43.256;26.960;2022-08-30T07:01:59;99602.88;;;27.21;100.00
11413;BME280;5762;43.256;26.960;2022-08-30T07:04:28;99605.21;;;27.42;100.00
11413;BME280;5762;43.256;26.960;2022-08-30T07:06:57;99602.91;;;27.36;100.00
11413;BME280;5762;43.256;26.960;2022-08-30T07:09:26;99605.09;;;27.18;100.00
11413;BME280;5762;43.256;26.960;2022-08-30T07:11:55;99601.11;;;27.19;100.00
11413;BME280;5762;43.256;26.960;2022-08-30T07:14:25;99602.43;;;27.26;100.00
11413;BME280;5762;43.256;26.960;2022-08-30T07:16:54;99596.69;;;27.25;100.00
11413;BME280;5762;43.256;26.960;2022-08-30T07:19:23;99597.51;;;27.22;100.00
11413;BME280;5762;43.256;26.960;2022-08-30T07:21:52;99595.03;;;27.31;100.00
11413;BME280;5762;43.256;26.960;2022-08-30T07:24:21;99599.61;;;27.45;100.00
11413;BME280;5762;43.256;26.960;2022-08-30T07:26:50;99604.94;;;27.48;100.00
11413;BME280;5762;43.256;26.960;2022-08-30T07:29:19;99606.44;;;27.56;100.00
11413;BME280;5762;43.256;26.960;2022-08-30T07:31:48;99599.63;;;27.64;100.00
11413;BME280;5762;43.256;26.960;2022-08-30T07:34:18;99599.97;;;27.81;100.00
11413;BME280;5762;43.256;26.960;2022-08-30T07:36:47;99608.92;;;28.08;100.00
11413;BME280;5762;43.256;26.960;2022-08-30T07:41:45;99601.59;;;28.59;100.00
11413;BME280;5762;43.256;26.960;2022-08-30T07:44:17;99601.47;;;28.66;100.00
11413;BME280;5762;43.256;26.960;2022-08-30T07:46:46;99608.44;;;28.66;100.00
11413;BME280;5762;43.256;26.960;2022-08-30T07:51:45;99600.92;;;28.98;100.00
11413;BME280;5762;43.256;26.960;2022-08-30T07:54:14;99596.55;;;29.09;100.00
11413;BME280;5762;43.256;26.960;2022-08-30T07:56:43;99594.51;;;29.21;100.00
11413;BME280;5762;43.256;26.960;2022-08-30T07:59:13;99589.23;;;29.47;100.00
11413;BME280;5762;43.256;26.960;2022-08-30T08:01:42;99588.47;;;29.82;100.00
11413;BME280;5762;43.256;26.960;2022-08-30T08:04:11;99584.73;;;30.09;100.00
11413;BME280;5762;43.256;26.960;2022-08-30T08:06:40;99588.23;;;30.37;100.00
11413;BME280;5762;43.256;26.960;2022-08-30T08:09:10;99579.48;;;30.51;100.00
11413;BME280;5762;43.256;26.960;2022-08-30T08:11:39;99584.57;;;30.56;100.00
11413;BME280;5762;43.256;26.960;2022-08-30T08:14:13;99582.48;;;30.60;100.00
11413;BME280;5762;43.256;26.960;2022-08-30T08:16:42;99584.39;;;30.63;100.00
11413;BME280;5762;43.256;26.960;2022-08-30T08:19:11;99579.23;;;30.70;100.00
11413;BME280;5762;43.256;26.960;2022-08-30T08:21:41;99571.46;;;30.78;100.00
11413;BME280;5762;43.256;26.960;2022-08-30T08:24:10;99575.44;;;30.85;100.00
11413;BME280;5762;43.256;26.960;2022-08-30T08:26:39;99573.56;;;30.74;100.00
11413;BME280;5762;43.256;26.960;2022-08-30T08:29:08;99576.53;;;30.66;100.00
11413;BME280;5762;43.256;26.960;2022-08-30T08:31:40;99580.55;;;30.49;100.00
11413;BME280;5762;43.256;26.960;2022-08-30T08:34:09;99577.99;;;30.55;100.00
11413;BME280;5762;43.256;26.960;2022-08-30T08:36:38;99568.33;;;30.68;100.00
11413;BME280;5762;43.256;26.960;2022-08-30T08:39:07;99570.63;;;30.85;100.00
11413;BME280;5762;43.256;26.960;2022-08-30T08:44:08;99569.45;;;31.07;100.00
11413;BME280;5762;43.256;26.960;2022-08-30T08:46:39;99566.39;;;31.10;100.00
11413;BME280;5762;43.256;26.960;2022-08-30T08:49:06;99571.52;;;31.19;100.00
11413;BME280;5762;43.256;26.960;2022-08-30T08:51:38;99569.83;;;31.30;100.00
11413;BME280;5762;43.256;26.960;2022-08-30T08:54:10;99570.64;;;31.22;100.00
11413;BME280;5762;43.256;26.960;2022-08-30T08:56:35;99566.95;;;31.25;100.00
11413;BME280;5762;43.256;26.960;2022-08-30T08:59:07;99567.64;;;31.29;100.00
11413;BME280;5762;43.256;26.960;2022-08-30T09:01:34;99569.70;;;31.42;100.00
11413;BME280;5762;43.256;26.960;2022-08-30T09:09:03;99567.20;;;31.64;90.07
11413;BME280;5762;43.256;26.960;2022-08-30T09:11:33;99564.01;;;31.58;82.11
11413;BME280;5762;43.256;26.960;2022-08-30T09:14:05;99563.28;;;31.49;80.00
11413;BME280;5762;43.256;26.960;2022-08-30T09:19:02;99560.44;;;31.78;78.46
11413;BME280;5762;43.256;26.960;2022-08-30T09:21:31;99554.96;;;31.87;76.63
11413;BME280;5762;43.256;26.960;2022-08-30T09:24:01;99561.27;;;31.96;76.76
11413;BME280;5762;43.256;26.960;2022-08-30T09:26:31;99555.17;;;31.80;78.60
11413;BME280;5762;43.256;26.960;2022-08-30T09:29:00;99546.05;;;31.84;77.64
11413;BME280;5762;43.256;26.960;2022-08-30T09:31:30;99551.07;;;32.27;76.71
11413;BME280;5762;43.256;26.960;2022-08-30T09:38:59;99556.99;;;32.42;74.38
11413;BME280;5762;43.256;26.960;2022-08-30T09:41:33;99555.11;;;32.14;76.23
11413;BME280;5762;43.256;26.960;2022-08-30T09:44:03;99550.94;;;32.44;75.16
11413;BME280;5762;43.256;26.960;2022-08-30T09:46:28;99546.21;;;32.53;74.41
11413;BME280;5762;43.256;26.960;2022-08-30T09:48:57;99542.81;;;32.88;72.92
11413;BME280;5762;43.256;26.960;2022-08-30T09:52:02;99539.71;;;33.13;72.76
11413;BME280;5762;43.256;26.960;2022-08-30T10:01:26;99529.37;;;32.71;68.55
11413;BME280;5762;43.256;26.960;2022-08-30T10:06:26;99532.27;;;32.97;66.33
11413;BME280;5762;43.256;26.960;2022-08-30T10:11:25;99523.00;;;33.53;62.64
11413;BME280;5762;43.256;26.960;2022-08-30T10:23:53;99521.13;;;33.85;60.88
11413;BME280;5762;43.256;26.960;2022-08-30T10:28:53;99509.95;;;33.68;60.73
11413;BME280;5762;43.256;26.960;2022-08-30T10:33:50;99498.55;;;33.93;58.57
11413;BME280;5762;43.256;26.960;2022-08-30T10:36:25;99503.57;;;33.72;56.42
11413;BME280;5762;43.256;26.960;2022-08-30T10:38:48;99321.95;;;32.88;54.85
11413;BME280;5762;43.256;26.960;2022-08-30T10:46:21;99494.39;;;34.21;52.07
11413;BME280;5762;43.256;26.960;2022-08-30T10:48:46;99488.67;;;34.56;51.56
11413;BME280;5762;43.256;26.960;2022-08-30T10:51:19;99489.76;;;34.50;50.23
11413;BME280;5762;43.256;26.960;2022-08-30T10:53:46;99487.86;;;34.33;50.40
11413;BME280;5762;43.256;26.960;2022-08-30T10:56:16;99487.22;;;34.24;50.03
11413;BME280;5762;43.256;26.960;2022-08-30T10:58:45;99482.83;;;34.19;49.56
11413;BME280;5762;43.256;26.960;2022-08-30T11:06:17;99474.41;;;34.19;47.24
11413;BME280;5762;43.256;26.960;2022-08-30T11:13:43;99459.75;;;34.79;45.97
11413;BME280;5762;43.256;26.960;2022-08-30T11:16:13;99454.60;;;34.73;46.27
11413;BME280;5762;43.256;26.960;2022-08-30T11:18:47;99447.23;;;35.03;46.91
11413;BME280;5762;43.256;26.960;2022-08-30T11:21:17;99449.85;;;35.20;46.29
11413;BME280;5762;43.256;26.960;2022-08-30T11:26:49;99441.25;;;35.23;45.67
11413;BME280;5762;43.256;26.960;2022-08-30T11:43:50;99422.02;;;35.22;41.08
11413;BME280;5762;43.256;26.960;2022-08-30T11:56:19;99408.22;;;35.99;40.05
11413;BME280;5762;43.256;26.960;2022-08-30T12:06:42;99397.02;;;36.33;39.47
11413;BME280;5762;43.256;26.960;2022-08-30T12:08:47;99390.49;;;36.27;39.44
11413;BME280;5762;43.256;26.960;2022-08-30T12:16:14;99392.88;;;36.00;37.77
11413;BME280;5762;43.256;26.960;2022-08-30T12:21:24;99381.50;;;35.66;37.33
11413;BME280;5762;43.256;26.960;2022-08-30T12:28:42;99368.59;;;35.79;38.09
11413;BME280;5762;43.256;26.960;2022-08-30T12:31:14;99374.32;;;36.08;36.67
11413;BME280;5762;43.256;26.960;2022-08-30T12:33:42;99363.61;;;36.17;36.86
11413;BME280;5762;43.256;26.960;2022-08-30T12:36:12;99355.83;;;36.95;36.12
11413;BME280;5762;43.256;26.960;2022-08-30T12:38:41;99349.46;;;37.14;35.14
11413;BME280;5762;43.256;26.960;2022-08-30T12:41:15;99347.95;;;36.99;35.84
11413;BME280;5762;43.256;26.960;2022-08-30T12:43:46;99342.69;;;37.06;37.22
11413;BME280;5762;43.256;26.960;2022-08-30T12:46:10;99345.22;;;36.60;36.97
11413;BME280;5762;43.256;26.960;2022-08-30T12:48:39;99348.77;;;36.36;37.87
11413;BME280;5762;43.256;26.960;2022-08-30T12:51:09;99343.50;;;36.43;37.83
11413;BME280;5762;43.256;26.960;2022-08-30T12:53:39;99344.69;;;36.51;37.08
11413;BME280;5762;43.256;26.960;2022-08-30T12:56:09;99340.95;;;36.35;36.05
11413;BME280;5762;43.256;26.960;2022-08-30T12:58:41;99335.16;;;36.34;36.70
11413;BME280;5762;43.256;26.960;2022-08-30T13:03:39;99329.11;;;36.41;36.42
11413;BME280;5762;43.256;26.960;2022-08-30T13:06:08;99321.55;;;36.77;36.80
11413;BME280;5762;43.256;26.960;2022-08-30T13:11:08;99313.31;;;37.08;34.74
11413;BME280;5762;43.256;26.960;2022-08-30T13:18:36;99313.19;;;36.82;34.30
11413;BME280;5762;43.256;26.960;2022-08-30T13:23:35;99304.60;;;37.92;33.39
11413;BME280;5762;43.256;26.960;2022-08-30T13:26:05;99297.90;;;37.79;33.23
11413;BME280;5762;43.256;26.960;2022-08-30T13:31:04;99286.66;;;37.85;32.95
11413;BME280;5762;43.256;26.960;2022-08-30T13:33:33;99284.23;;;37.72;32.78
11413;BME280;5762;43.256;26.960;2022-08-30T13:36:02;99285.56;;;37.77;32.94
11413;BME280;5762;43.256;26.960;2022-08-30T13:38:31;99285.69;;;37.37;33.20
11413;BME280;5762;43.256;26.960;2022-08-30T13:41:00;99280.98;;;36.89;33.81
11413;BME280;5762;43.256;26.960;2022-08-30T13:43:30;99280.80;;;37.78;31.65
11413;BME280;5762;43.256;26.960;2022-08-30T13:45:59;99273.13;;;38.15;30.88
11413;BME280;5762;43.256;26.960;2022-08-30T13:48:28;99277.91;;;37.93;29.94
11413;BME280;5762;43.256;26.960;2022-08-30T13:50:57;99268.23;;;37.89;30.20
11413;BME280;5762;43.256;26.960;2022-08-30T13:53:27;99271.80;;;36.84;31.16
11413;BME280;5762;43.256;26.960;2022-08-30T13:55:56;99272.05;;;36.76;30.85
11413;BME280;5762;43.256;26.960;2022-08-30T13:58:25;99266.84;;;37.04;30.49
11413;BME280;5762;43.256;26.960;2022-08-30T14:00:54;99262.17;;;36.76;30.59
11413;BME280;5762;43.256;26.960;2022-08-30T14:03:23;99255.72;;;36.65;31.38
11413;BME280;5762;43.256;26.960;2022-08-30T14:10:52;99251.03;;;36.77;32.06
11413;BME280;5762;43.256;26.960;2022-08-30T14:13:21;99250.67;;;36.94;33.63
11413;BME280;5762;43.256;26.960;2022-08-30T14:15:50;99236.23;;;36.57;41.08
11413;BME280;5762;43.256;26.960;2022-08-30T14:18:20;99241.19;;;36.03;44.08
11413;BME280;5762;43.256;26.960;2022-08-30T14:20:49;99245.52;;;35.32;45.98
11413;BME280;5762;43.256;26.960;2022-08-30T14:23:18;99233.92;;;35.01;45.30
11413;BME280;5762;43.256;26.960;2022-08-30T14:25:47;99239.53;;;35.06;46.30
11413;BME280;5762;43.256;26.960;2022-08-30T14:28:16;99229.66;;;35.10;46.92
11413;BME280;5762;43.256;26.960;2022-08-30T14:30:45;99228.61;;;34.66;48.94
11413;BME280;5762;43.256;26.960;2022-08-30T14:35:44;99231.94;;;33.85;53.00
11413;BME280;5762;43.256;26.960;2022-08-30T14:38:16;99231.59;;;33.74;52.93
11413;BME280;5762;43.256;26.960;2022-08-30T14:40:48;99231.77;;;33.57;54.18
11413;BME280;5762;43.256;26.960;2022-08-30T14:43:16;99234.70;;;33.67;54.39
11413;BME280;5762;43.256;26.960;2022-08-30T14:45:46;99237.20;;;33.47;55.87
11413;BME280;5762;43.256;26.960;2022-08-30T14:48:15;99232.81;;;33.32;57.10
11413;BME280;5762;43.256;26.960;2022-08-30T14:53:14;99230.17;;;33.33;56.40
11413;BME280;5762;43.256;26.960;2022-08-30T14:55:46;99226.13;;;33.39;55.82
11413;BME280;5762;43.256;26.960;2022-08-30T14:58:14;99228.31;;;33.39;56.28
11413;BME280;5762;43.256;26.960;2022-08-30T15:03:13;99230.31;;;33.29;58.57
11413;BME280;5762;43.256;26.960;2022-08-30T15:05:47;99233.23;;;33.12;59.76
11413;BME280;5762;43.256;26.960;2022-08-30T15:08:12;99227.92;;;33.10;60.39
11413;BME280;5762;43.256;26.960;2022-08-30T15:10:41;99239.87;;;32.87;63.39
11413;BME280;5762;43.256;26.960;2022-08-30T15:13:11;99233.13;;;32.76;65.65
11413;BME280;5762;43.256;26.960;2022-08-30T15:15:40;99235.34;;;32.59;68.62
11413;BME280;5762;43.256;26.960;2022-08-30T15:18:09;99235.30;;;32.45;71.55
11413;BME280;5762;43.256;26.960;2022-08-30T15:20:47;99231.42;;;32.21;73.10
11413;BME280;5762;43.256;26.960;2022-08-30T15:23:08;99234.88;;;32.03;73.15
11413;BME280;5762;43.256;26.960;2022-08-30T15:25:37;99236.81;;;31.93;74.72
11413;BME280;5762;43.256;26.960;2022-08-30T15:28:07;99244.56;;;31.89;76.58
11413;BME280;5762;43.256;26.960;2022-08-30T15:33:06;99246.05;;;31.64;80.02
11413;BME280;5762;43.256;26.960;2022-08-30T15:35:35;99249.36;;;31.50;81.36
11413;BME280;5762;43.256;26.960;2022-08-30T15:38:04;99252.56;;;31.44;82.68
11413;BME280;5762;43.256;26.960;2022-08-30T15:40:33;99258.06;;;31.35;83.63
11413;BME280;5762;43.256;26.960;2022-08-30T15:43:02;99253.94;;;31.26;84.96
11413;BME280;5762;43.256;26.960;2022-08-30T15:45:31;99257.75;;;31.07;83.42
11413;BME280;5762;43.256;26.960;2022-08-30T15:48:00;99253.95;;;30.88;83.69
11413;BME280;5762;43.256;26.960;2022-08-30T15:50:30;99251.41;;;30.81;83.69
11413;BME280;5762;43.256;26.960;2022-08-30T15:52:59;99252.75;;;30.77;83.87
11413;BME280;5762;43.256;26.960;2022-08-30T15:55:28;99247.14;;;30.64;84.74
11413;BME280;5762;43.256;26.960;2022-08-30T15:57:57;99257.75;;;30.56;84.95
11413;BME280;5762;43.256;26.960;2022-08-30T16:00:26;99259.29;;;30.45;86.25
11413;BME280;5762;43.256;26.960;2022-08-30T16:02:55;99262.08;;;30.45;87.01
11413;BME280;5762;43.256;26.960;2022-08-30T16:05:24;99257.93;;;30.37;87.75